Altamira, Brazil

5:14 AM AMT on December 21, 2014 (GMT -0400)
Altamira | Change Station
CLOSE
Current Station
Airport
Location: Altamira,
Elevation: 243 ft
Nearby Weather Stations

Elev 243 ft 3.20 °S, 52.20 °W | Updated 14 minutes ago

Scattered Clouds
Scattered Clouds
75 °F
Feels Like 75 °F
N
0
Wind Variable Wind from North

Today
High -- | Low -- °F
--% Chance of Precip.
Yesterday
High -- | Low -- °F
Precip. -- in
5:17 AM 5:36 PM
Waning Crescent, 1% visible
Pressure 29.83 in
Visibility 6.2 miles
Clouds Scattered Clouds 900 ft
Dew Point 75 °F
Humidity 100%
Rainfall 0.00 in
Snow Depth Not available.
UV 0 out of 12
Pollen Not available.
Air Quality Not available.
Flu Activity Not available.
METAR SBHT 210900Z 00000KT 9999 SCT009 24/24 Q1010

More Conditions Fewer Conditions

Pressure 29.83 in
Visibility 6.2 miles
Clouds Scattered Clouds 900 ft
Dew Point 75 °F
Humidity 100%
Rainfall 0.00 in
Snow Depth Not available.
UV 0 out of 12
Pollen Not available.
Air Quality Not available.
Flu Activity Not available.
METAR SBHT 210900Z 00000KT 9999 SCT009 24/24 Q1010

More Conditions Fewer Conditions

10-Day Weather Forecast

Almanac

Astronomy

Dec. 21, 2014 Rise Set
Actual Time
Civil Twilight
Nautical Twilight
Astronomical Twilight
Moon
Length of Visible Light
Length of Day
Tomorrow will be .
, % of the Moon is Illuminated

Today's Extremes

Country Highs Country Lows

Community

WunderPhotos

Upload Photos

1,779,364 photos uploaded!

WunderBlogs® & News

Nearby

Air Quality

  Air Quality AQ Index Pollutant
Not available.

Snow Depth

Station Depth Elevation

Earthquake Activity

City Distance Mag. Time & Date
Minimum magnitude displayed is 2.5.

Coastal Water Temperatures

Place Temperature

Nearby Weather Stations